METAR Data
IDs: Format: Raw Decoded Include TAF

Data at: 1828 UTC 06 Jul 2020

METAR for:KITR (Burlington/Kit Carso, CO, US)
Text:KITR 061753Z AUTO 21007G15KT 10SM CLR 30/13 A3012 RMK AO2 SLP141 T03000128 10300 20161 50000
Temperature: 30.0°C ( 86°F)
Dewpoint: 12.8°C ( 55°F) [RH = 35%]
Pressure (altimeter):30.12 inches Hg (1020.1 mb) [Sea level pressure: 1014.1 mb]
Winds:from the SSW (210 degrees) at 8 MPH (7 knots; 3.6 m/s) gusting to 17 MPH (15 knots; 7.7 m/s)
Visibility:10 or more sm (16+ km)
Ceiling:at least 12,000 feet AGL
Clouds:sky clear below 12,000 feet AGL
QC Flag:automated observation with no human augmentation